Time;durP1;ratioP1;P1;durP2;ratioP2;P2;SDS_P1;SDS_P2;PMS_P1;PMS_P2;Temp;Humidity;BMP_temperature;BMP_pressure;BME280_temperature;BME280_humidity;BME280_pressure;Samples;Min_cycle;Max_cycle;Signal;HPM_P1;HPM_P2
2024/02/03 00:01:37;;;;;;;8.32;4.07;;;;;;;;;;5032734;28;20095;-80
2024/02/03 00:04:02;;;;;;;7.75;4.18;;;;;;;;;;5021644;28;20076;-79
2024/02/03 00:06:28;;;;;;;3.20;1.67;;;;;;;;;;5017955;28;20122;-80
2024/02/03 00:08:53;;;;;;;6.20;3.47;;;;;;;;;;5036968;28;20116;-80
2024/02/03 00:11:18;;;;;;;4.43;2.65;;;;;;;;;;5006737;28;20108;-79
2024/02/03 00:13:44;;;;;;;3.95;2.53;;;;;;;;;;5035061;28;20033;-79
2024/02/03 00:16:09;;;;;;;6.00;3.30;;;;;;;;;;5023696;28;20033;-81
2024/02/03 00:18:35;;;;;;;7.07;3.65;;;;;;;;;;5026980;28;20030;-79
2024/02/03 00:21:00;;;;;;;5.38;3.33;;;;;;;;;;5016636;28;20041;-81
2024/02/03 00:23:26;;;;;;;6.57;3.90;;;;;;;;;;5019846;28;20036;-80
2024/02/03 00:25:51;;;;;;;5.72;3.42;;;;;;;;;;5014318;28;20033;-79
2024/02/03 00:28:19;;;;;;;7.03;3.72;;;;;;;;;;5017667;28;20112;-80
2024/02/03 00:30:44;;;;;;;2.60;1.35;;;;;;;;;;5024085;28;20059;-80
2024/02/03 00:33:10;;;;;;;6.63;3.40;;;;;;;;;;5028653;28;20037;-79
2024/02/03 00:35:35;;;;;;;3.90;2.72;;;;;;;;;;5030635;28;20577;-80
2024/02/03 00:38:00;;;;;;;3.58;2.33;;;;;;;;;;5024612;28;20041;-81
2024/02/03 00:40:26;;;;;;;2.42;1.88;;;;;;;;;;5020340;28;20069;-81
2024/02/03 00:42:51;;;;;;;3.38;1.95;;;;;;;;;;5034342;28;20044;-81
2024/02/03 00:45:17;;;;;;;4.05;2.40;;;;;;;;;;5030230;28;20036;-78
2024/02/03 00:47:42;;;;;;;4.78;3.13;;;;;;;;;;5025901;28;20037;-79
2024/02/03 00:50:14;;;;;;;5.00;3.13;;;;;;;;;;5042608;28;20041;-80
2024/02/03 00:52:42;;;;;;;5.35;2.75;;;;;;;;;;5034354;28;20040;-79
2024/02/03 00:55:09;;;;;;;3.38;2.17;;;;;;;;;;5024417;28;20041;-80
2024/02/03 00:57:34;;;;;;;5.20;3.13;;;;;;;;;;5031882;28;20048;-79
2024/02/03 01:00:00;;;;;;;4.35;2.80;;;;;;;;;;5019076;28;20108;-79
2024/02/03 01:02:25;;;;;;;3.38;2.63;;;;;;;;;;5023410;28;20045;-81
2024/02/03 01:04:50;;;;;;;2.67;1.58;;;;;;;;;;5033314;28;20700;-80
2024/02/03 01:07:16;;;;;;;4.03;2.60;;;;;;;;;;5021405;28;20042;-79
2024/02/03 01:09:41;;;;;;;3.03;1.90;;;;;;;;;;5018559;28;20053;-82
2024/02/03 01:12:07;;;;;;;3.72;1.92;;;;;;;;;;5038916;28;20063;-78
2024/02/03 01:14:32;;;;;;;6.03;3.20;;;;;;;;;;5043410;28;20307;-81
2024/02/03 01:16:58;;;;;;;6.60;3.03;;;;;;;;;;5035064;28;20111;-79
2024/02/03 01:19:23;;;;;;;6.82;3.28;;;;;;;;;;5034534;28;20033;-81
2024/02/03 01:21:49;;;;;;;4.93;2.80;;;;;;;;;;5023495;28;20560;-79
2024/02/03 01:24:14;;;;;;;5.80;3.22;;;;;;;;;;5009395;28;20042;-80
2024/02/03 01:26:39;;;;;;;2.95;1.92;;;;;;;;;;5035624;28;20137;-80
2024/02/03 01:29:05;;;;;;;6.28;3.13;;;;;;;;;;5028321;28;20452;-82
2024/02/03 01:31:31;;;;;;;5.05;2.70;;;;;;;;;;5035965;28;20107;-80
2024/02/03 01:33:57;;;;;;;3.60;2.05;;;;;;;;;;5032027;28;20115;-79
2024/02/03 01:36:23;;;;;;;5.32;3.75;;;;;;;;;;5030467;28;20043;-80
2024/02/03 01:38:52;;;;;;;6.65;3.67;;;;;;;;;;5017777;28;20037;-80
2024/02/03 01:41:17;;;;;;;5.75;3.50;;;;;;;;;;5023957;28;20064;-81
2024/02/03 01:43:44;;;;;;;5.03;2.60;;;;;;;;;;5022431;28;20029;-78
2024/02/03 01:46:09;;;;;;;6.63;3.97;;;;;;;;;;5027155;28;20034;-80
2024/02/03 01:48:35;;;;;;;5.72;2.80;;;;;;;;;;5033299;28;20427;-79
2024/02/03 01:51:02;;;;;;;2.60;1.40;;;;;;;;;;5000870;28;20025;-80
2024/02/03 01:53:28;;;;;;;4.95;3.05;;;;;;;;;;5016585;28;20113;-80
2024/02/03 01:55:56;;;;;;;5.15;3.08;;;;;;;;;;5027993;28;20526;-79
2024/02/03 01:58:22;;;;;;;7.03;4.10;;;;;;;;;;5031505;28;20033;-80
2024/02/03 02:00:48;;;;;;;4.65;2.95;;;;;;;;;;5034818;28;20414;-80
2024/02/03 02:03:16;;;;;;;4.15;2.65;;;;;;;;;;5019523;28;20045;-79
2024/02/03 02:05:44;;;;;;;6.30;3.28;;;;;;;;;;5019089;28;20043;-79
2024/02/03 02:08:10;;;;;;;4.15;2.15;;;;;;;;;;5028396;28;20033;-81
2024/02/03 02:10:38;;;;;;;4.57;2.65;;;;;;;;;;5028823;28;20376;-81
2024/02/03 02:13:03;;;;;;;4.03;2.50;;;;;;;;;;5033144;28;20037;-81
2024/02/03 02:15:29;;;;;;;5.93;3.17;;;;;;;;;;5023156;28;20047;-80
2024/02/03 02:18:01;;;;;;;4.45;2.70;;;;;;;;;;5034209;28;20110;-79
2024/02/03 02:20:27;;;;;;;4.05;1.50;;;;;;;;;;5005781;28;20515;-80
2024/02/03 02:22:53;;;;;;;6.53;3.53;;;;;;;;;;5035234;28;20025;-80
2024/02/03 02:25:19;;;;;;;6.43;3.35;;;;;;;;;;5026493;28;20056;-79
2024/02/03 02:27:44;;;;;;;4.10;2.70;;;;;;;;;;5013949;28;20568;-80
2024/02/03 02:30:10;;;;;;;2.22;1.58;;;;;;;;;;5035422;28;20040;-80
2024/02/03 02:32:36;;;;;;;5.13;2.92;;;;;;;;;;5029733;28;20057;-78
2024/02/03 02:35:02;;;;;;;4.47;2.33;;;;;;;;;;5019040;28;20036;-79
2024/02/03 02:37:28;;;;;;;2.05;1.13;;;;;;;;;;5030967;28;20545;-78
2024/02/03 02:39:53;;;;;;;2.42;2.03;;;;;;;;;;5012918;28;20040;-81
2024/02/03 02:42:19;;;;;;;3.00;2.03;;;;;;;;;;5021793;28;20044;-81
2024/02/03 02:44:44;;;;;;;3.95;2.13;;;;;;;;;;5015352;28;20038;-79
2024/02/03 02:47:09;;;;;;;3.15;2.20;;;;;;;;;;5028152;28;20041;-81
2024/02/03 02:49:35;;;;;;;2.60;1.27;;;;;;;;;;5037021;28;20055;-77
2024/02/03 02:52:00;;;;;;;5.15;2.20;;;;;;;;;;5036219;28;20057;-81
2024/02/03 02:54:26;;;;;;;1.90;1.45;;;;;;;;;;5021154;28;20536;-81
2024/02/03 02:56:51;;;;;;;2.08;1.10;;;;;;;;;;5017574;28;20041;-80
2024/02/03 02:59:17;;;;;;;3.92;2.50;;;;;;;;;;5033277;28;20139;-81
2024/02/03 03:01:43;;;;;;;2.40;1.95;;;;;;;;;;5027733;28;20037;-81
2024/02/03 03:04:08;;;;;;;4.10;2.50;;;;;;;;;;5029760;28;20033;-82
2024/02/03 03:06:34;;;;;;;2.38;1.60;;;;;;;;;;5036060;28;20042;-80
2024/02/03 03:08:59;;;;;;;2.85;1.80;;;;;;;;;;5023805;28;20037;-82
2024/02/03 03:11:24;;;;;;;3.05;2.20;;;;;;;;;;5029329;28;20053;-83
2024/02/03 03:13:50;;;;;;;3.72;2.38;;;;;;;;;;5034436;28;20529;-81
2024/02/03 03:16:15;;;;;;;1.85;1.00;;;;;;;;;;5014150;28;20067;-79
2024/02/03 03:18:40;;;;;;;3.33;2.08;;;;;;;;;;5026053;28;20048;-80
2024/02/03 03:21:07;;;;;;;3.65;2.30;;;;;;;;;;5022381;28;20561;-82
2024/02/03 03:23:33;;;;;;;3.58;2.38;;;;;;;;;;5035509;28;20441;-81
2024/02/03 03:25:59;;;;;;;3.67;1.83;;;;;;;;;;5035029;28;20033;-81
2024/02/03 03:28:25;;;;;;;3.00;1.90;;;;;;;;;;5032984;28;20045;-79
2024/02/03 03:30:50;;;;;;;3.55;2.58;;;;;;;;;;5015882;28;20046;-81
2024/02/03 03:33:15;;;;;;;1.80;1.30;;;;;;;;;;5018202;28;20431;-81
2024/02/03 03:35:41;;;;;;;2.65;1.70;;;;;;;;;;5015733;28;20033;-82
2024/02/03 03:38:07;;;;;;;4.55;2.45;;;;;;;;;;5022734;28;20037;-81
2024/02/03 03:40:33;;;;;;;5.25;3.00;;;;;;;;;;5031397;28;20036;-81
2024/02/03 03:42:58;;;;;;;3.72;2.00;;;;;;;;;;5027909;28;20532;-82
2024/02/03 03:45:24;;;;;;;3.13;1.67;;;;;;;;;;5015382;28;20064;-82
2024/02/03 03:47:49;;;;;;;2.63;1.63;;;;;;;;;;5019672;28;20521;-82
2024/02/03 03:50:15;;;;;;;1.77;1.10;;;;;;;;;;5016168;28;20044;-81
2024/02/03 03:52:40;;;;;;;3.85;2.00;;;;;;;;;;5041967;28;20048;-80
2024/02/03 03:55:06;;;;;;;2.67;1.77;;;;;;;;;;5018154;28;20629;-82
2024/02/03 03:57:31;;;;;;;4.72;2.55;;;;;;;;;;5022924;28;20475;-81
2024/02/03 03:59:57;;;;;;;2.60;1.25;;;;;;;;;;5024745;28;20090;-79
2024/02/03 04:02:22;;;;;;;2.75;1.30;;;;;;;;;;5033563;28;20099;-79
2024/02/03 04:04:48;;;;;;;4.15;2.33;;;;;;;;;;5037437;28;20041;-80
2024/02/03 04:07:13;;;;;;;4.55;2.97;;;;;;;;;;5021020;28;20473;-80
2024/02/03 04:09:40;;;;;;;3.67;2.20;;;;;;;;;;5035098;28;20445;-80
2024/02/03 04:12:05;;;;;;;5.05;2.97;;;;;;;;;;5031366;28;20073;-80
2024/02/03 04:14:31;;;;;;;4.07;2.90;;;;;;;;;;5023123;28;20040;-80
2024/02/03 04:16:56;;;;;;;2.88;1.80;;;;;;;;;;5033411;28;20044;-79
2024/02/03 04:19:21;;;;;;;6.25;3.55;;;;;;;;;;5029773;28;20842;-80
2024/02/03 04:21:47;;;;;;;3.30;1.70;;;;;;;;;;5016691;28;20056;-78
2024/02/03 04:24:12;;;;;;;4.70;2.47;;;;;;;;;;5033663;28;20405;-80
2024/02/03 04:26:37;;;;;;;3.55;2.13;;;;;;;;;;5038320;28;20570;-80
2024/02/03 04:29:03;;;;;;;4.07;2.35;;;;;;;;;;5031877;28;20037;-80
2024/02/03 04:31:28;;;;;;;6.55;3.20;;;;;;;;;;5038169;28;20132;-82
2024/02/03 04:33:54;;;;;;;4.65;2.70;;;;;;;;;;5038642;28;20410;-80
2024/02/03 04:36:19;;;;;;;2.05;1.40;;;;;;;;;;5037627;28;20064;-80
2024/02/03 04:38:45;;;;;;;3.08;2.00;;;;;;;;;;5037807;28;20111;-80
2024/02/03 04:41:21;;;;;;;4.03;2.63;;;;;;;;;;5037933;28;20120;-79
2024/02/03 04:43:46;;;;;;;2.58;1.73;;;;;;;;;;5027081;28;20078;-80
2024/02/03 04:46:11;;;;;;;3.08;2.30;;;;;;;;;;5023802;28;20064;-79
2024/02/03 04:48:37;;;;;;;2.60;1.35;;;;;;;;;;5014650;28;20044;-79
2024/02/03 04:51:02;;;;;;;2.53;1.30;;;;;;;;;;5027437;28;20052;-79
2024/02/03 04:53:27;;;;;;;1.85;1.63;;;;;;;;;;5023517;28;20045;-79
2024/02/03 04:55:53;;;;;;;4.50;2.25;;;;;;;;;;5038793;28;20036;-80
2024/02/03 04:58:19;;;;;;;3.90;1.95;;;;;;;;;;5012787;28;20038;-79
2024/02/03 05:00:44;;;;;;;3.45;2.38;;;;;;;;;;5021393;28;20076;-80
2024/02/03 05:03:09;;;;;;;2.78;1.65;;;;;;;;;;5027880;28;20182;-80
2024/02/03 05:05:35;;;;;;;2.55;1.23;;;;;;;;;;5026431;28;20536;-80
2024/02/03 05:08:00;;;;;;;3.53;1.80;;;;;;;;;;5026949;28;20483;-80
2024/02/03 05:10:25;;;;;;;1.63;1.23;;;;;;;;;;5034993;28;20129;-79
2024/02/03 05:12:51;;;;;;;2.60;2.25;;;;;;;;;;5017397;28;20052;-78
2024/02/03 05:15:18;;;;;;;2.05;1.52;;;;;;;;;;5024868;28;20051;-81
2024/02/03 05:17:43;;;;;;;3.10;2.22;;;;;;;;;;5037647;28;20053;-79
2024/02/03 05:20:09;;;;;;;1.27;1.00;;;;;;;;;;5026463;28;20029;-79
2024/02/03 05:22:35;;;;;;;2.92;1.90;;;;;;;;;;5034731;28;20032;-81
2024/02/03 05:25:00;;;;;;;3.53;2.15;;;;;;;;;;5048059;28;20033;-79
2024/02/03 05:27:25;;;;;;;2.50;1.88;;;;;;;;;;5017650;28;20148;-81
2024/02/03 05:29:52;;;;;;;3.63;2.13;;;;;;;;;;5029129;28;20061;-79
2024/02/03 05:32:17;;;;;;;2.35;1.75;;;;;;;;;;5034390;28;20045;-82
2024/02/03 05:34:43;;;;;;;2.22;1.65;;;;;;;;;;5016523;28;20037;-80
2024/02/03 05:37:09;;;;;;;2.47;1.33;;;;;;;;;;5032717;28;20437;-80
2024/02/03 05:39:35;;;;;;;1.85;1.48;;;;;;;;;;5030629;28;20148;-80
2024/02/03 05:42:00;;;;;;;1.95;1.55;;;;;;;;;;5029463;28;20109;-80
2024/02/03 05:44:26;;;;;;;2.17;1.48;;;;;;;;;;5043367;28;20107;-80
2024/02/03 05:46:51;;;;;;;2.25;1.20;;;;;;;;;;5038671;28;20048;-78
2024/02/03 05:49:16;;;;;;;2.20;1.50;;;;;;;;;;5042317;28;20083;-81
2024/02/03 05:51:42;;;;;;;2.72;1.88;;;;;;;;;;5033527;28;20064;-79
2024/02/03 05:54:07;;;;;;;1.40;0.82;;;;;;;;;;5017935;28;20061;-81
2024/02/03 05:56:37;;;;;;;1.75;1.13;;;;;;;;;;5020227;28;20042;-80
2024/02/03 05:59:02;;;;;;;3.90;1.58;;;;;;;;;;5016549;28;20389;-79
2024/02/03 06:01:28;;;;;;;3.55;2.63;;;;;;;;;;5037381;28;20040;-81
2024/02/03 06:03:53;;;;;;;1.58;1.20;;;;;;;;;;5031828;28;20053;-80
2024/02/03 06:06:18;;;;;;;4.18;2.08;;;;;;;;;;5017792;28;20612;-79
2024/02/03 06:08:44;;;;;;;2.25;1.80;;;;;;;;;;5024824;28;20609;-79
2024/02/03 06:11:09;;;;;;;1.40;1.20;;;;;;;;;;5024082;28;20041;-81
2024/02/03 06:13:35;;;;;;;2.45;1.58;;;;;;;;;;5024340;28;20055;-79
2024/02/03 06:16:04;;;;;;;1.60;1.42;;;;;;;;;;5019601;28;20043;-80
2024/02/03 06:18:30;;;;;;;1.15;0.85;;;;;;;;;;5035082;28;20513;-79
2024/02/03 06:20:55;;;;;;;3.03;1.90;;;;;;;;;;5015331;28;20106;-80
2024/02/03 06:23:21;;;;;;;3.55;1.92;;;;;;;;;;5026975;28;20049;-81
2024/02/03 06:25:46;;;;;;;1.58;1.48;;;;;;;;;;5025716;28;20509;-80
2024/02/03 06:28:13;;;;;;;3.80;2.50;;;;;;;;;;5042123;28;20036;-80
2024/02/03 06:30:39;;;;;;;4.20;2.22;;;;;;;;;;4996168;28;20041;-81
2024/02/03 06:33:05;;;;;;;4.32;2.08;;;;;;;;;;5029081;28;20415;-79
2024/02/03 06:35:31;;;;;;;2.03;1.48;;;;;;;;;;5026676;28;20045;-81
2024/02/03 06:37:56;;;;;;;2.22;1.52;;;;;;;;;;5020280;28;21980;-80
2024/02/03 06:40:24;;;;;;;4.75;2.40;;;;;;;;;;5037629;28;20052;-81
2024/02/03 06:42:49;;;;;;;4.03;1.92;;;;;;;;;;5030673;28;20049;-80
2024/02/03 06:45:16;;;;;;;1.80;1.35;;;;;;;;;;5024361;28;20494;-79
2024/02/03 06:47:41;;;;;;;2.05;1.40;;;;;;;;;;5031186;28;20114;-79
2024/02/03 06:50:07;;;;;;;1.77;1.30;;;;;;;;;;5047246;28;20494;-80
2024/02/03 06:52:34;;;;;;;1.75;1.38;;;;;;;;;;5012313;28;20542;-79
2024/02/03 06:54:59;;;;;;;4.00;2.30;;;;;;;;;;5032378;28;20033;-79
2024/02/03 06:57:24;;;;;;;3.42;1.50;;;;;;;;;;5029277;28;20037;-80
2024/02/03 06:59:50;;;;;;;2.05;1.45;;;;;;;;;;5018363;28;20041;-80
2024/02/03 07:02:15;;;;;;;4.32;2.50;;;;;;;;;;5034751;28;20044;-79
2024/02/03 07:04:41;;;;;;;2.65;1.77;;;;;;;;;;5027712;28;20044;-80
2024/02/03 07:07:06;;;;;;;3.25;1.73;;;;;;;;;;5018255;28;20036;-80
2024/02/03 07:09:31;;;;;;;1.98;1.13;;;;;;;;;;5029206;28;20037;-80
2024/02/03 07:11:57;;;;;;;2.08;1.42;;;;;;;;;;5033317;28;20056;-78
2024/02/03 07:14:22;;;;;;;3.50;2.00;;;;;;;;;;5025666;28;20046;-80
2024/02/03 07:16:47;;;;;;;3.15;1.95;;;;;;;;;;5029404;28;20044;-78
2024/02/03 07:19:13;;;;;;;1.98;1.27;;;;;;;;;;5006782;28;20063;-78
2024/02/03 07:21:38;;;;;;;2.78;1.88;;;;;;;;;;5016633;28;20040;-78
2024/02/03 07:24:04;;;;;;;3.63;2.42;;;;;;;;;;5022590;28;20037;-80
2024/02/03 07:26:29;;;;;;;2.92;1.90;;;;;;;;;;5039305;28;20043;-78
2024/02/03 07:28:55;;;;;;;3.38;2.33;;;;;;;;;;5014025;28;20041;-79
2024/02/03 07:31:28;;;;;;;1.33;1.00;;;;;;;;;;5025176;28;20065;-79
2024/02/03 07:33:53;;;;;;;3.25;2.05;;;;;;;;;;5013133;28;20033;-79
2024/02/03 07:36:19;;;;;;;2.83;2.00;;;;;;;;;;5024886;28;20086;-78
2024/02/03 07:38:44;;;;;;;2.55;1.77;;;;;;;;;;5033189;28;20444;-79
2024/02/03 07:41:10;;;;;;;3.80;1.85;;;;;;;;;;5032067;28;20770;-78
2024/02/03 07:43:35;;;;;;;1.73;1.33;;;;;;;;;;5015819;28;20042;-80
2024/02/03 07:46:00;;;;;;;1.20;1.08;;;;;;;;;;5022145;28;20041;-81
2024/02/03 07:48:26;;;;;;;0.98;0.85;;;;;;;;;;5017813;28;20558;-80
2024/02/03 07:50:51;;;;;;;1.40;0.90;;;;;;;;;;5006180;28;20069;-79
2024/02/03 07:53:17;;;;;;;4.18;1.92;;;;;;;;;;5029155;28;20048;-79
2024/02/03 07:55:42;;;;;;;3.53;2.20;;;;;;;;;;5037918;28;20040;-78
2024/02/03 07:58:07;;;;;;;1.08;0.88;;;;;;;;;;5039935;28;20029;-78
2024/02/03 08:00:33;;;;;;;3.00;1.65;;;;;;;;;;5039252;28;20425;-78
2024/02/03 08:02:58;;;;;;;1.63;1.40;;;;;;;;;;5030824;28;20498;-78
2024/02/03 08:05:24;;;;;;;2.13;1.40;;;;;;;;;;5026107;28;20371;-79
2024/02/03 08:07:49;;;;;;;1.90;1.23;;;;;;;;;;5019694;28;20068;-78
2024/02/03 08:10:14;;;;;;;1.67;1.48;;;;;;;;;;5030006;28;20505;-79
2024/02/03 08:12:40;;;;;;;2.30;1.85;;;;;;;;;;5030712;28;20371;-80
2024/02/03 08:15:05;;;;;;;3.78;1.23;;;;;;;;;;5031444;28;20068;-80
2024/02/03 08:17:31;;;;;;;1.25;0.82;;;;;;;;;;5018301;28;20036;-79
2024/02/03 08:19:57;;;;;;;2.92;1.70;;;;;;;;;;5020344;28;20037;-77
2024/02/03 08:22:23;;;;;;;2.08;1.70;;;;;;;;;;5026480;28;20048;-80
2024/02/03 08:24:49;;;;;;;2.50;1.65;;;;;;;;;;5028827;28;20116;-79
2024/02/03 08:27:14;;;;;;;1.98;1.17;;;;;;;;;;5035086;28;20097;-79
2024/02/03 08:29:40;;;;;;;2.60;1.52;;;;;;;;;;5027074;28;20041;-80
2024/02/03 08:32:05;;;;;;;1.33;0.90;;;;;;;;;;5025624;28;20049;-78
2024/02/03 08:34:31;;;;;;;1.60;1.20;;;;;;;;;;5036335;28;20052;-80
2024/02/03 08:36:56;;;;;;;1.10;0.93;;;;;;;;;;5032196;28;20425;-79
2024/02/03 08:39:22;;;;;;;0.82;0.80;;;;;;;;;;5031565;28;20432;-79
2024/02/03 08:41:47;;;;;;;0.40;0.40;;;;;;;;;;5032066;28;20044;-78
2024/02/03 08:44:12;;;;;;;2.03;1.40;;;;;;;;;;5036722;28;20083;-78
2024/02/03 08:46:38;;;;;;;3.10;1.55;;;;;;;;;;5028341;28;20076;-78
2024/02/03 08:49:03;;;;;;;1.40;1.10;;;;;;;;;;5024811;28;20033;-78
2024/02/03 08:51:28;;;;;;;0.63;0.57;;;;;;;;;;5028996;28;20085;-78
2024/02/03 08:53:54;;;;;;;1.60;1.00;;;;;;;;;;5027658;28;20040;-78
2024/02/03 08:56:20;;;;;;;1.20;1.08;;;;;;;;;;5037382;28;20141;-78
2024/02/03 08:58:45;;;;;;;1.25;0.52;;;;;;;;;;5036925;28;20135;-78
2024/02/03 09:01:10;;;;;;;0.90;0.73;;;;;;;;;;5032166;28;20670;-78
2024/02/03 09:03:36;;;;;;;1.52;0.90;;;;;;;;;;5012662;28;20119;-78
2024/02/03 09:06:01;;;;;;;0.57;0.50;;;;;;;;;;5015599;28;20051;-78
2024/02/03 09:08:27;;;;;;;1.50;1.15;;;;;;;;;;5032485;28;20125;-78
2024/02/03 09:10:52;;;;;;;1.55;1.15;;;;;;;;;;5036132;28;20030;-78
2024/02/03 09:13:17;;;;;;;1.35;0.90;;;;;;;;;;5028261;28;20072;-78
2024/02/03 09:15:43;;;;;;;1.10;0.93;;;;;;;;;;5027520;28;20037;-78
2024/02/03 09:18:08;;;;;;;1.92;1.15;;;;;;;;;;5011981;28;20049;-78
2024/02/03 09:20:33;;;;;;;2.45;1.10;;;;;;;;;;5026917;28;20037;-78
2024/02/03 09:23:00;;;;;;;2.05;0.80;;;;;;;;;;5020807;28;20045;-78
2024/02/03 09:25:26;;;;;;;1.23;0.98;;;;;;;;;;5031923;28;20039;-78
2024/02/03 09:27:51;;;;;;;1.00;0.93;;;;;;;;;;5014613;28;20416;-77
2024/02/03 09:30:16;;;;;;;1.58;1.30;;;;;;;;;;5024480;28;20045;-78
2024/02/03 09:32:42;;;;;;;2.63;1.30;;;;;;;;;;5021073;28;20030;-78
2024/02/03 09:35:07;;;;;;;0.68;0.63;;;;;;;;;;5034171;28;20545;-78
2024/02/03 09:37:32;;;;;;;1.60;1.30;;;;;;;;;;5031662;28;20665;-78
2024/02/03 09:39:58;;;;;;;1.45;1.00;;;;;;;;;;5025179;28;20032;-78
2024/02/03 09:42:24;;;;;;;0.80;0.70;;;;;;;;;;5023804;28;20057;-78
2024/02/03 09:44:49;;;;;;;0.82;0.63;;;;;;;;;;5027056;28;20037;-78
2024/02/03 09:47:16;;;;;;;1.63;1.10;;;;;;;;;;5021927;28;20542;-78
2024/02/03 09:49:43;;;;;;;1.42;1.05;;;;;;;;;;5022090;28;20543;-78
2024/02/03 09:52:14;;;;;;;1.27;0.93;;;;;;;;;;5030811;28;20044;-78
2024/02/03 09:54:48;;;;;;;;;;;;;;;;;;5031967;28;20103;-78
2024/02/03 09:57:14;;;;;;;1.85;0.70;;;;;;;;;;5029208;28;19925;-78
2024/02/03 09:59:40;;;;;;;0.75;0.70;;;;;;;;;;5014217;28;20144;-78
2024/02/03 10:02:06;;;;;;;0.70;0.70;;;;;;;;;;5024097;28;20501;-78
2024/02/03 10:04:41;;;;;;;0.45;0.43;;;;;;;;;;5027181;28;20628;-78
2024/02/03 10:07:07;;;;;;;1.13;0.68;;;;;;;;;;5011504;28;20121;-78
2024/02/03 10:09:32;;;;;;;0.88;0.80;;;;;;;;;;5032134;28;20147;-78
2024/02/03 10:11:58;;;;;;;0.70;0.70;;;;;;;;;;5013629;28;20116;-78
2024/02/03 10:14:23;;;;;;;1.17;0.98;;;;;;;;;;5022996;28;20044;-78
2024/02/03 10:16:52;;;;;;;0.50;0.50;;;;;;;;;;5031539;28;20044;-78
2024/02/03 10:19:20;;;;;;;1.60;0.70;;;;;;;;;;5034470;28;20079;-78
2024/02/03 10:21:45;;;;;;;1.58;0.90;;;;;;;;;;5034052;28;20105;-78
2024/02/03 10:24:11;;;;;;;0.88;0.60;;;;;;;;;;5016072;28;21235;-79
2024/02/03 10:26:36;;;;;;;1.20;0.70;;;;;;;;;;5017167;28;20119;-80
2024/02/03 10:29:03;;;;;;;0.60;0.60;;;;;;;;;;5029773;28;20052;-78
2024/02/03 10:31:28;;;;;;;0.50;0.40;;;;;;;;;;5034804;28;20041;-78
2024/02/03 10:33:57;;;;;;;0.50;0.50;;;;;;;;;;5013448;28;20042;-79
2024/02/03 10:36:22;;;;;;;0.57;0.57;;;;;;;;;;5023974;28;20106;-79
2024/02/03 10:38:48;;;;;;;2.22;0.90;;;;;;;;;;5035005;28;20699;-78
2024/02/03 10:41:15;;;;;;;1.75;0.43;;;;;;;;;;5025355;28;20092;-79
2024/02/03 10:43:41;;;;;;;0.73;0.40;;;;;;;;;;5016186;28;20037;-78
2024/02/03 10:46:10;;;;;;;0.55;0.55;;;;;;;;;;5020361;28;20049;-79
2024/02/03 10:48:40;;;;;;;0.30;0.30;;;;;;;;;;5035891;28;20047;-78
2024/02/03 10:51:12;;;;;;;0.60;0.60;;;;;;;;;;5010207;28;20037;-78
2024/02/03 10:54:03;;;;;;;0.68;0.68;;;;;;;;;;5021521;28;20119;-79
2024/02/03 10:56:34;;;;;;;4.05;2.70;;;;;;;;;;5025274;28;20044;-79
2024/02/03 10:58:59;;;;;;;0.80;0.80;;;;;;;;;;5028283;28;20819;-77
2024/02/03 11:01:33;;;;;;;4.95;3.25;;;;;;;;;;5029371;28;20714;-79
2024/02/03 11:04:00;;;;;;;0.50;0.50;;;;;;;;;;5005828;28;20040;-79
2024/02/03 11:06:30;;;;;;;1.38;1.10;;;;;;;;;;5022128;28;20048;-79
2024/02/03 11:09:13;;;;;;;0.37;0.33;;;;;;;;;;5029808;28;20513;-79
2024/02/03 11:11:43;;;;;;;1.20;0.73;;;;;;;;;;5035364;28;20048;-79
2024/02/03 11:14:15;;;;;;;1.27;1.00;;;;;;;;;;5036201;28;20045;-78
2024/02/03 11:16:40;;;;;;;2.03;1.33;;;;;;;;;;5011078;28;20043;-80
2024/02/03 11:19:12;;;;;;;1.00;0.40;;;;;;;;;;5010864;28;20452;-79
2024/02/03 11:21:44;;;;;;;0.73;0.70;;;;;;;;;;5026795;28;20041;-79
2024/02/03 11:24:10;;;;;;;0.95;0.75;;;;;;;;;;5036107;28;20506;-79
2024/02/03 11:26:39;;;;;;;0.43;0.40;;;;;;;;;;5015487;28;20037;-80
2024/02/03 11:29:05;;;;;;;0.93;0.77;;;;;;;;;;5025663;28;20037;-79
2024/02/03 11:31:31;;;;;;;0.50;0.50;;;;;;;;;;5032577;28;20405;-77
2024/02/03 11:33:57;;;;;;;0.40;0.40;;;;;;;;;;5024377;28;20037;-78
2024/02/03 11:36:24;;;;;;;0.45;0.40;;;;;;;;;;5027607;28;20041;-79
2024/02/03 11:38:50;;;;;;;2.85;0.80;;;;;;;;;;5038331;28;20141;-79
2024/02/03 11:41:16;;;;;;;0.40;0.40;;;;;;;;;;5025769;28;20220;-78
2024/02/03 11:43:42;;;;;;;0.50;0.50;;;;;;;;;;5022345;28;20041;-79
2024/02/03 11:46:10;;;;;;;0.55;0.55;;;;;;;;;;5034914;28;20072;-79
2024/02/03 11:48:36;;;;;;;0.82;0.40;;;;;;;;;;5018592;28;20611;-79
2024/02/03 11:51:08;;;;;;;0.60;0.60;;;;;;;;;;5032206;28;20134;-78
2024/02/03 11:53:33;;;;;;;;;;;;;;;;;;5022319;28;20609;-78
2024/02/03 11:55:59;;;;;;;0.30;0.30;;;;;;;;;;5001687;28;20000;-80
2024/02/03 11:58:24;;;;;;;0.20;0.20;;;;;;;;;;5019931;28;20090;-78
2024/02/03 12:01:06;;;;;;;0.88;0.70;;;;;;;;;;5035815;28;20029;-80
2024/02/03 12:03:31;;;;;;;0.43;0.43;;;;;;;;;;5030367;28;20091;-79
2024/02/03 12:05:57;;;;;;;0.40;0.40;;;;;;;;;;5006452;28;20249;-80
2024/02/03 12:08:22;;;;;;;0.32;0.32;;;;;;;;;;5016930;28;20208;-79
2024/02/03 12:10:48;;;;;;;0.30;0.30;;;;;;;;;;5031083;28;20045;-80
2024/02/03 12:13:13;;;;;;;0.30;0.30;;;;;;;;;;5020508;28;20104;-81
2024/02/03 12:15:38;;;;;;;0.40;0.40;;;;;;;;;;5023544;28;20044;-79
2024/02/03 12:18:05;;;;;;;0.75;0.30;;;;;;;;;;5029808;28;20733;-81
2024/02/03 12:20:33;;;;;;;0.40;0.40;;;;;;;;;;5005674;28;20030;-78
2024/02/03 12:22:59;;;;;;;2.53;2.35;;;;;;;;;;5023949;28;20032;-81
2024/02/03 12:25:25;;;;;;;1.85;0.40;;;;;;;;;;5020491;28;20106;-79
2024/02/03 12:27:51;;;;;;;0.30;0.30;;;;;;;;;;5023420;28;20029;-78
2024/02/03 12:30:18;;;;;;;0.75;0.75;;;;;;;;;;5030394;28;20092;-80
2024/02/03 12:32:45;;;;;;;0.30;0.30;;;;;;;;;;5029513;28;20041;-79
2024/02/03 12:35:11;;;;;;;1.50;0.35;;;;;;;;;;5024200;28;20030;-79
2024/02/03 12:37:37;;;;;;;0.52;0.32;;;;;;;;;;5011440;28;20079;-79
2024/02/03 12:40:02;;;;;;;0.40;0.40;;;;;;;;;;5014974;28;20124;-78
2024/02/03 12:42:28;;;;;;;0.73;0.73;;;;;;;;;;5033011;28;20084;-81
2024/02/03 12:44:53;;;;;;;0.40;0.40;;;;;;;;;;5024413;28;20033;-81
2024/02/03 12:47:19;;;;;;;0.40;0.40;;;;;;;;;;5022174;28;20060;-79
2024/02/03 12:49:44;;;;;;;0.30;0.30;;;;;;;;;;5015260;28;20040;-79
2024/02/03 12:52:09;;;;;;;2.25;0.65;;;;;;;;;;5026953;28;20063;-80
2024/02/03 12:54:35;;;;;;;1.10;0.63;;;;;;;;;;5028601;28;20053;-80
2024/02/03 12:57:00;;;;;;;0.63;0.50;;;;;;;;;;5029757;28;20040;-79
2024/02/03 12:59:26;;;;;;;0.45;0.40;;;;;;;;;;5028953;28;20041;-80
2024/02/03 13:01:51;;;;;;;0.75;0.60;;;;;;;;;;5004908;28;20051;-78
2024/02/03 13:04:16;;;;;;;0.43;0.43;;;;;;;;;;5032871;28;20548;-81
2024/02/03 13:06:42;;;;;;;0.68;0.40;;;;;;;;;;5027456;28;20037;-80
2024/02/03 13:09:11;;;;;;;0.50;0.50;;;;;;;;;;5036857;28;20041;-80
2024/02/03 13:11:37;;;;;;;0.85;0.73;;;;;;;;;;5037160;28;20044;-81
2024/02/03 13:14:02;;;;;;;2.00;0.77;;;;;;;;;;5043286;28;20067;-81
2024/02/03 13:16:29;;;;;;;0.70;0.38;;;;;;;;;;5023839;28;20668;-81
2024/02/03 13:18:54;;;;;;;0.75;0.40;;;;;;;;;;5039337;28;20039;-81
2024/02/03 13:21:19;;;;;;;0.40;0.40;;;;;;;;;;5016632;28;20037;-81
2024/02/03 13:23:45;;;;;;;0.30;0.30;;;;;;;;;;5025053;28;20089;-79
2024/02/03 13:26:10;;;;;;;0.50;0.40;;;;;;;;;;5042794;28;20515;-80
2024/02/03 13:28:36;;;;;;;0.40;0.40;;;;;;;;;;5024774;28;20040;-82
2024/02/03 13:31:02;;;;;;;0.63;0.55;;;;;;;;;;5036192;28;20049;-82
2024/02/03 13:33:28;;;;;;;0.30;0.30;;;;;;;;;;5024348;28;20072;-79
2024/02/03 13:35:54;;;;;;;0.70;0.70;;;;;;;;;;5013178;28;20116;-81
2024/02/03 13:38:19;;;;;;;0.30;0.30;;;;;;;;;;5032944;28;20044;-80
2024/02/03 13:40:45;;;;;;;0.50;0.50;;;;;;;;;;5026601;28;20029;-83
2024/02/03 13:43:10;;;;;;;0.85;0.50;;;;;;;;;;5021004;28;20176;-78
2024/02/03 13:45:36;;;;;;;0.55;0.43;;;;;;;;;;5034391;28;20037;-79
2024/02/03 13:48:02;;;;;;;0.30;0.30;;;;;;;;;;5032118;28;20124;-80
2024/02/03 13:50:27;;;;;;;0.25;0.25;;;;;;;;;;5016028;28;20074;-81
2024/02/03 13:52:53;;;;;;;0.43;0.30;;;;;;;;;;5028900;28;20087;-80
2024/02/03 13:55:20;;;;;;;0.85;0.20;;;;;;;;;;5037398;28;20052;-78
2024/02/03 13:57:46;;;;;;;0.63;0.45;;;;;;;;;;5039351;28;20041;-79
2024/02/03 14:00:12;;;;;;;0.40;0.40;;;;;;;;;;5038717;28;20120;-77
2024/02/03 14:02:38;;;;;;;0.60;0.52;;;;;;;;;;5018638;28;20154;-81
2024/02/03 14:05:04;;;;;;;0.50;0.50;;;;;;;;;;5029299;28;20588;-77
2024/02/03 14:07:29;;;;;;;0.73;0.73;;;;;;;;;;5017346;28;20127;-79
2024/02/03 14:09:54;;;;;;;10.52;9.48;;;;;;;;;;5018856;28;20107;-81
2024/02/03 14:12:21;;;;;;;1.92;1.73;;;;;;;;;;5017154;28;20041;-79
2024/02/03 14:14:46;;;;;;;1.10;1.00;;;;;;;;;;5031824;28;20624;-79
2024/02/03 14:17:12;;;;;;;6.97;5.47;;;;;;;;;;5005210;28;20211;-81
2024/02/03 14:19:37;;;;;;;1.58;1.48;;;;;;;;;;5032159;28;20056;-80
2024/02/03 14:22:03;;;;;;;3.78;3.47;;;;;;;;;;5031792;28;20784;-80
2024/02/03 14:24:28;;;;;;;2.00;1.80;;;;;;;;;;5029118;28;20226;-80
2024/02/03 14:26:54;;;;;;;5.25;3.85;;;;;;;;;;5026489;28;20029;-79
2024/02/03 14:29:20;;;;;;;0.90;0.90;;;;;;;;;;5024304;28;20042;-79
2024/02/03 14:31:47;;;;;;;0.82;0.80;;;;;;;;;;5016561;28;20506;-80
2024/02/03 14:34:14;;;;;;;1.25;0.90;;;;;;;;;;5021955;28;20099;-80
2024/02/03 14:36:39;;;;;;;0.85;0.80;;;;;;;;;;5024088;28;20651;-80